sensor_id;sensor_type;location;lat;lon;timestamp;P1;durP1;ratioP1;P2;durP2;ratioP2
21827;SDS011;11076;47.942;11.804;2023-03-19T00:04:10;15.17;;;7.60;;
21827;SDS011;11076;47.942;11.804;2023-03-19T00:09:12;21.23;;;6.83;;
21827;SDS011;11076;47.942;11.804;2023-03-19T00:14:15;10.47;;;4.63;;
21827;SDS011;11076;47.942;11.804;2023-03-19T00:19:18;7.63;;;4.63;;
21827;SDS011;11076;47.942;11.804;2023-03-19T00:24:20;8.47;;;5.30;;
21827;SDS011;11076;47.942;11.804;2023-03-19T00:29:23;12.33;;;5.20;;
21827;SDS011;11076;47.942;11.804;2023-03-19T00:34:25;7.37;;;4.80;;
21827;SDS011;11076;47.942;11.804;2023-03-19T00:39:28;9.43;;;4.70;;
21827;SDS011;11076;47.942;11.804;2023-03-19T00:44:30;9.13;;;4.60;;
21827;SDS011;11076;47.942;11.804;2023-03-19T00:49:32;8.00;;;3.90;;
21827;SDS011;11076;47.942;11.804;2023-03-19T00:54:36;9.30;;;3.63;;
21827;SDS011;11076;47.942;11.804;2023-03-19T00:59:38;6.37;;;4.33;;
21827;SDS011;11076;47.942;11.804;2023-03-19T01:04:40;8.97;;;4.30;;
21827;SDS011;11076;47.942;11.804;2023-03-19T01:09:43;5.73;;;3.80;;
21827;SDS011;11076;47.942;11.804;2023-03-19T01:14:46;12.80;;;4.37;;
21827;SDS011;11076;47.942;11.804;2023-03-19T01:19:48;8.67;;;4.20;;
21827;SDS011;11076;47.942;11.804;2023-03-19T01:24:51;5.03;;;2.90;;
21827;SDS011;11076;47.942;11.804;2023-03-19T01:29:54;5.87;;;3.57;;
21827;SDS011;11076;47.942;11.804;2023-03-19T01:35:15;4.63;;;2.43;;
21827;SDS011;11076;47.942;11.804;2023-03-19T01:40:18;6.53;;;3.03;;
21827;SDS011;11076;47.942;11.804;2023-03-19T01:45:36;6.23;;;2.40;;
21827;SDS011;11076;47.942;11.804;2023-03-19T01:51:02;2.10;;;1.97;;
21827;SDS011;11076;47.942;11.804;2023-03-19T01:56:37;4.93;;;2.73;;
21827;SDS011;11076;47.942;11.804;2023-03-19T02:02:10;5.43;;;2.80;;
21827;SDS011;11076;47.942;11.804;2023-03-19T02:07:46;5.60;;;2.70;;
21827;SDS011;11076;47.942;11.804;2023-03-19T02:12:49;5.00;;;2.47;;
21827;SDS011;11076;47.942;11.804;2023-03-19T02:17:52;7.20;;;2.47;;
21827;SDS011;11076;47.942;11.804;2023-03-19T02:22:59;5.60;;;2.60;;
21827;SDS011;11076;47.942;11.804;2023-03-19T02:28:05;4.20;;;2.20;;
21827;SDS011;11076;47.942;11.804;2023-03-19T02:33:12;8.13;;;2.40;;
21827;SDS011;11076;47.942;11.804;2023-03-19T02:38:15;7.47;;;2.60;;
21827;SDS011;11076;47.942;11.804;2023-03-19T02:43:19;3.13;;;2.30;;
21827;SDS011;11076;47.942;11.804;2023-03-19T02:48:25;2.90;;;1.97;;
21827;SDS011;11076;47.942;11.804;2023-03-19T02:53:27;3.77;;;2.20;;
21827;SDS011;11076;47.942;11.804;2023-03-19T02:58:30;8.47;;;1.93;;
21827;SDS011;11076;47.942;11.804;2023-03-19T03:03:32;9.73;;;2.53;;
21827;SDS011;11076;47.942;11.804;2023-03-19T03:08:35;7.80;;;2.60;;
21827;SDS011;11076;47.942;11.804;2023-03-19T03:13:37;4.73;;;2.67;;
21827;SDS011;11076;47.942;11.804;2023-03-19T03:18:40;4.90;;;2.10;;
21827;SDS011;11076;47.942;11.804;2023-03-19T03:23:43;4.13;;;2.87;;
21827;SDS011;11076;47.942;11.804;2023-03-19T03:28:45;4.40;;;2.73;;
21827;SDS011;11076;47.942;11.804;2023-03-19T03:33:48;7.73;;;2.90;;
21827;SDS011;11076;47.942;11.804;2023-03-19T03:38:51;8.50;;;2.80;;
21827;SDS011;11076;47.942;11.804;2023-03-19T03:43:54;6.37;;;3.17;;
21827;SDS011;11076;47.942;11.804;2023-03-19T03:48:57;6.50;;;2.70;;
21827;SDS011;11076;47.942;11.804;2023-03-19T03:53:59;5.60;;;2.50;;
21827;SDS011;11076;47.942;11.804;2023-03-19T03:59:02;8.23;;;2.97;;
21827;SDS011;11076;47.942;11.804;2023-03-19T04:04:04;5.53;;;2.63;;
21827;SDS011;11076;47.942;11.804;2023-03-19T04:09:07;5.63;;;2.80;;
21827;SDS011;11076;47.942;11.804;2023-03-19T04:14:10;5.60;;;2.93;;
21827;SDS011;11076;47.942;11.804;2023-03-19T04:19:13;10.80;;;2.97;;
21827;SDS011;11076;47.942;11.804;2023-03-19T04:24:16;6.87;;;2.80;;
21827;SDS011;11076;47.942;11.804;2023-03-19T04:29:19;5.33;;;2.83;;
21827;SDS011;11076;47.942;11.804;2023-03-19T04:34:21;7.03;;;3.27;;
21827;SDS011;11076;47.942;11.804;2023-03-19T04:39:24;6.40;;;2.80;;
21827;SDS011;11076;47.942;11.804;2023-03-19T04:44:26;6.93;;;2.67;;
21827;SDS011;11076;47.942;11.804;2023-03-19T04:49:29;6.63;;;3.17;;
21827;SDS011;11076;47.942;11.804;2023-03-19T04:54:32;10.67;;;4.33;;
21827;SDS011;11076;47.942;11.804;2023-03-19T04:59:35;4.57;;;3.40;;
21827;SDS011;11076;47.942;11.804;2023-03-19T05:04:37;7.30;;;3.83;;
21827;SDS011;11076;47.942;11.804;2023-03-19T05:09:43;6.27;;;3.37;;
21827;SDS011;11076;47.942;11.804;2023-03-19T05:14:48;9.33;;;3.40;;
21827;SDS011;11076;47.942;11.804;2023-03-19T05:19:57;7.73;;;2.57;;
21827;SDS011;11076;47.942;11.804;2023-03-19T05:25:00;10.90;;;4.80;;
21827;SDS011;11076;47.942;11.804;2023-03-19T05:30:05;9.13;;;3.53;;
21827;SDS011;11076;47.942;11.804;2023-03-19T05:35:27;10.87;;;4.80;;
21827;SDS011;11076;47.942;11.804;2023-03-19T05:40:33;9.93;;;3.73;;
21827;SDS011;11076;47.942;11.804;2023-03-19T05:45:49;7.87;;;3.20;;
21827;SDS011;11076;47.942;11.804;2023-03-19T05:51:00;10.07;;;4.20;;
21827;SDS011;11076;47.942;11.804;2023-03-19T05:56:08;6.33;;;3.17;;
21827;SDS011;11076;47.942;11.804;2023-03-19T06:01:22;8.23;;;3.20;;
21827;SDS011;11076;47.942;11.804;2023-03-19T06:06:25;8.60;;;3.23;;
21827;SDS011;11076;47.942;11.804;2023-03-19T06:11:28;6.00;;;3.47;;
21827;SDS011;11076;47.942;11.804;2023-03-19T06:16:50;6.50;;;2.90;;
21827;SDS011;11076;47.942;11.804;2023-03-19T06:21:53;4.63;;;3.17;;
21827;SDS011;11076;47.942;11.804;2023-03-19T06:26:55;6.85;;;3.28;;
21827;SDS011;11076;47.942;11.804;2023-03-19T06:31:58;7.10;;;3.70;;
21827;SDS011;11076;47.942;11.804;2023-03-19T06:37:09;6.75;;;3.60;;
21827;SDS011;11076;47.942;11.804;2023-03-19T06:42:11;4.80;;;2.92;;
21827;SDS011;11076;47.942;11.804;2023-03-19T06:47:14;6.22;;;3.80;;
21827;SDS011;11076;47.942;11.804;2023-03-19T06:52:16;5.30;;;3.00;;
21827;SDS011;11076;47.942;11.804;2023-03-19T06:57:19;3.92;;;2.45;;
21827;SDS011;11076;47.942;11.804;2023-03-19T07:02:21;6.13;;;3.97;;
21827;SDS011;11076;47.942;11.804;2023-03-19T07:07:24;6.95;;;3.58;;
21827;SDS011;11076;47.942;11.804;2023-03-19T07:12:26;10.35;;;3.47;;
21827;SDS011;11076;47.942;11.804;2023-03-19T07:17:29;8.52;;;2.10;;
21827;SDS011;11076;47.942;11.804;2023-03-19T07:22:31;6.97;;;3.40;;
21827;SDS011;11076;47.942;11.804;2023-03-19T07:27:33;3.90;;;1.88;;
21827;SDS011;11076;47.942;11.804;2023-03-19T07:32:36;7.65;;;3.13;;
21827;SDS011;11076;47.942;11.804;2023-03-19T07:37:40;5.10;;;3.33;;
21827;SDS011;11076;47.942;11.804;2023-03-19T07:42:43;5.97;;;2.25;;
21827;SDS011;11076;47.942;11.804;2023-03-19T07:47:48;3.20;;;2.70;;
21827;SDS011;11076;47.942;11.804;2023-03-19T07:52:52;4.07;;;2.17;;
21827;SDS011;11076;47.942;11.804;2023-03-19T07:57:54;5.30;;;2.65;;
21827;SDS011;11076;47.942;11.804;2023-03-19T08:02:57;8.63;;;2.45;;
21827;SDS011;11076;47.942;11.804;2023-03-19T08:07:59;4.63;;;2.60;;
21827;SDS011;11076;47.942;11.804;2023-03-19T08:13:02;7.50;;;2.40;;
21827;SDS011;11076;47.942;11.804;2023-03-19T08:18:06;4.10;;;2.67;;
21827;SDS011;11076;47.942;11.804;2023-03-19T08:23:08;4.35;;;2.50;;
21827;SDS011;11076;47.942;11.804;2023-03-19T08:28:11;4.13;;;2.65;;
21827;SDS011;11076;47.942;11.804;2023-03-19T08:33:14;3.83;;;2.50;;
21827;SDS011;11076;47.942;11.804;2023-03-19T08:38:16;4.78;;;2.90;;
21827;SDS011;11076;47.942;11.804;2023-03-19T08:43:19;4.70;;;2.45;;
21827;SDS011;11076;47.942;11.804;2023-03-19T08:48:21;3.80;;;2.10;;
21827;SDS011;11076;47.942;11.804;2023-03-19T08:53:24;4.93;;;2.67;;
21827;SDS011;11076;47.942;11.804;2023-03-19T08:58:27;7.63;;;2.50;;
21827;SDS011;11076;47.942;11.804;2023-03-19T09:03:29;3.22;;;1.73;;
21827;SDS011;11076;47.942;11.804;2023-03-19T09:08:33;2.40;;;2.00;;
21827;SDS011;11076;47.942;11.804;2023-03-19T09:13:37;2.45;;;1.98;;
21827;SDS011;11076;47.942;11.804;2023-03-19T09:18:39;3.88;;;2.35;;
21827;SDS011;11076;47.942;11.804;2023-03-19T09:23:41;4.38;;;2.33;;
21827;SDS011;11076;47.942;11.804;2023-03-19T09:28:44;4.18;;;1.70;;
21827;SDS011;11076;47.942;11.804;2023-03-19T09:33:47;2.97;;;2.40;;
21827;SDS011;11076;47.942;11.804;2023-03-19T09:38:49;2.30;;;1.55;;
21827;SDS011;11076;47.942;11.804;2023-03-19T09:49:11;4.97;;;2.33;;
21827;SDS011;11076;47.942;11.804;2023-03-19T09:54:26;2.83;;;2.28;;
21827;SDS011;11076;47.942;11.804;2023-03-19T09:59:32;9.25;;;2.42;;
21827;SDS011;11076;47.942;11.804;2023-03-19T10:04:42;4.68;;;2.83;;
21827;SDS011;11076;47.942;11.804;2023-03-19T10:10:09;6.78;;;1.90;;
21827;SDS011;11076;47.942;11.804;2023-03-19T10:15:38;5.45;;;2.65;;
21827;SDS011;11076;47.942;11.804;2023-03-19T10:20:47;3.50;;;2.20;;
21827;SDS011;11076;47.942;11.804;2023-03-19T10:25:51;6.05;;;2.95;;
21827;SDS011;11076;47.942;11.804;2023-03-19T10:31:06;3.53;;;2.13;;
21827;SDS011;11076;47.942;11.804;2023-03-19T10:36:19;9.18;;;4.28;;
21827;SDS011;11076;47.942;11.804;2023-03-19T10:46:39;9.13;;;3.25;;
21827;SDS011;11076;47.942;11.804;2023-03-19T10:51:45;5.95;;;3.17;;
21827;SDS011;11076;47.942;11.804;2023-03-19T10:56:48;4.43;;;2.50;;
21827;SDS011;11076;47.942;11.804;2023-03-19T11:01:55;5.32;;;1.98;;
21827;SDS011;11076;47.942;11.804;2023-03-19T11:07:07;2.25;;;1.77;;
21827;SDS011;11076;47.942;11.804;2023-03-19T11:17:28;2.67;;;1.95;;
21827;SDS011;11076;47.942;11.804;2023-03-19T11:22:38;4.03;;;2.40;;
21827;SDS011;11076;47.942;11.804;2023-03-19T11:27:42;4.13;;;2.03;;
21827;SDS011;11076;47.942;11.804;2023-03-19T11:38:22;2.25;;;2.05;;
21827;SDS011;11076;47.942;11.804;2023-03-19T11:49:36;5.30;;;2.28;;
21827;SDS011;11076;47.942;11.804;2023-03-19T12:15:30;2.90;;;2.15;;
21827;SDS011;11076;47.942;11.804;2023-03-19T12:26:12;4.38;;;1.92;;
21827;SDS011;11076;47.942;11.804;2023-03-19T12:31:35;4.38;;;2.30;;
21827;SDS011;11076;47.942;11.804;2023-03-19T12:42:25;3.95;;;2.22;;
21827;SDS011;11076;47.942;11.804;2023-03-19T12:47:35;3.72;;;2.72;;
21827;SDS011;11076;47.942;11.804;2023-03-19T12:52:42;5.47;;;2.20;;
21827;SDS011;11076;47.942;11.804;2023-03-19T13:13:44;4.18;;;2.00;;
21827;SDS011;11076;47.942;11.804;2023-03-19T13:19:10;2.53;;;2.10;;
21827;SDS011;11076;47.942;11.804;2023-03-19T13:24:24;3.67;;;2.13;;
21827;SDS011;11076;47.942;11.804;2023-03-19T13:29:31;4.10;;;2.20;;
21827;SDS011;11076;47.942;11.804;2023-03-19T13:34:39;4.55;;;2.20;;
21827;SDS011;11076;47.942;11.804;2023-03-19T13:39:42;3.70;;;2.20;;
21827;SDS011;11076;47.942;11.804;2023-03-19T13:44:52;2.50;;;2.03;;
21827;SDS011;11076;47.942;11.804;2023-03-19T13:55:22;2.92;;;1.92;;
21827;SDS011;11076;47.942;11.804;2023-03-19T14:05:48;2.83;;;1.52;;
21827;SDS011;11076;47.942;11.804;2023-03-19T14:11:02;2.97;;;1.80;;
21827;SDS011;11076;47.942;11.804;2023-03-19T14:16:11;3.17;;;1.85;;
21827;SDS011;11076;47.942;11.804;2023-03-19T14:26:57;3.78;;;1.70;;
21827;SDS011;11076;47.942;11.804;2023-03-19T14:32:06;3.22;;;1.65;;
21827;SDS011;11076;47.942;11.804;2023-03-19T14:53:03;24.80;;;2.80;;
21827;SDS011;11076;47.942;11.804;2023-03-19T14:58:16;2.50;;;1.88;;
21827;SDS011;11076;47.942;11.804;2023-03-19T15:03:32;2.88;;;1.55;;
21827;SDS011;11076;47.942;11.804;2023-03-19T15:08:40;8.48;;;1.73;;
21827;SDS011;11076;47.942;11.804;2023-03-19T15:19:01;2.35;;;2.00;;
21827;SDS011;11076;47.942;11.804;2023-03-19T15:24:04;3.13;;;2.10;;
21827;SDS011;11076;47.942;11.804;2023-03-19T15:29:08;3.80;;;2.25;;
21827;SDS011;11076;47.942;11.804;2023-03-19T15:34:17;8.13;;;2.10;;
21827;SDS011;11076;47.942;11.804;2023-03-19T15:39:24;3.80;;;2.40;;
21827;SDS011;11076;47.942;11.804;2023-03-19T15:44:38;3.10;;;2.08;;
21827;SDS011;11076;47.942;11.804;2023-03-19T15:49:49;3.40;;;2.22;;
21827;SDS011;11076;47.942;11.804;2023-03-19T15:54:59;3.35;;;2.63;;
21827;SDS011;11076;47.942;11.804;2023-03-19T16:00:03;2.97;;;2.47;;
21827;SDS011;11076;47.942;11.804;2023-03-19T16:05:26;3.08;;;2.10;;
21827;SDS011;11076;47.942;11.804;2023-03-19T16:10:31;5.45;;;2.90;;
21827;SDS011;11076;47.942;11.804;2023-03-19T16:15:44;2.92;;;2.03;;
21827;SDS011;11076;47.942;11.804;2023-03-19T16:21:00;6.40;;;2.20;;
21827;SDS011;11076;47.942;11.804;2023-03-19T16:26:20;4.85;;;2.45;;
21827;SDS011;11076;47.942;11.804;2023-03-19T16:31:26;3.33;;;2.10;;
21827;SDS011;11076;47.942;11.804;2023-03-19T16:36:32;2.78;;;2.30;;
21827;SDS011;11076;47.942;11.804;2023-03-19T16:41:35;5.43;;;2.20;;
21827;SDS011;11076;47.942;11.804;2023-03-19T16:46:38;2.28;;;2.05;;
21827;SDS011;11076;47.942;11.804;2023-03-19T16:51:40;4.47;;;2.35;;
21827;SDS011;11076;47.942;11.804;2023-03-19T16:56:43;3.42;;;2.10;;
21827;SDS011;11076;47.942;11.804;2023-03-19T17:01:45;2.30;;;1.77;;
21827;SDS011;11076;47.942;11.804;2023-03-19T17:06:47;5.75;;;2.05;;
21827;SDS011;11076;47.942;11.804;2023-03-19T17:11:50;4.07;;;2.53;;
21827;SDS011;11076;47.942;11.804;2023-03-19T17:16:54;5.13;;;2.35;;
21827;SDS011;11076;47.942;11.804;2023-03-19T17:21:58;2.58;;;2.25;;
21827;SDS011;11076;47.942;11.804;2023-03-19T17:27:01;4.55;;;2.25;;
21827;SDS011;11076;47.942;11.804;2023-03-19T17:32:05;4.00;;;2.20;;
21827;SDS011;11076;47.942;11.804;2023-03-19T17:37:15;5.22;;;2.17;;
21827;SDS011;11076;47.942;11.804;2023-03-19T17:42:22;3.45;;;2.03;;
21827;SDS011;11076;47.942;11.804;2023-03-19T17:47:25;4.63;;;2.40;;
21827;SDS011;11076;47.942;11.804;2023-03-19T17:52:28;5.20;;;2.17;;
21827;SDS011;11076;47.942;11.804;2023-03-19T17:57:31;4.03;;;2.42;;
21827;SDS011;11076;47.942;11.804;2023-03-19T18:02:33;4.97;;;3.22;;
21827;SDS011;11076;47.942;11.804;2023-03-19T18:07:37;4.10;;;2.13;;
21827;SDS011;11076;47.942;11.804;2023-03-19T18:12:40;3.53;;;2.47;;
21827;SDS011;11076;47.942;11.804;2023-03-19T18:17:45;7.97;;;2.65;;
21827;SDS011;11076;47.942;11.804;2023-03-19T18:22:50;5.72;;;2.78;;
21827;SDS011;11076;47.942;11.804;2023-03-19T18:27:53;5.38;;;3.05;;
21827;SDS011;11076;47.942;11.804;2023-03-19T18:32:56;10.05;;;2.40;;
21827;SDS011;11076;47.942;11.804;2023-03-19T18:38:01;16.42;;;3.10;;
21827;SDS011;11076;47.942;11.804;2023-03-19T18:43:04;10.75;;;2.95;;
21827;SDS011;11076;47.942;11.804;2023-03-19T18:53:29;2.50;;;2.30;;
21827;SDS011;11076;47.942;11.804;2023-03-19T18:58:31;4.57;;;2.90;;
21827;SDS011;11076;47.942;11.804;2023-03-19T19:03:35;5.43;;;2.80;;
21827;SDS011;11076;47.942;11.804;2023-03-19T19:08:38;7.93;;;3.23;;
21827;SDS011;11076;47.942;11.804;2023-03-19T19:13:40;5.60;;;3.20;;
21827;SDS011;11076;47.942;11.804;2023-03-19T19:18:56;7.17;;;3.20;;
21827;SDS011;11076;47.942;11.804;2023-03-19T19:23:58;6.40;;;3.30;;
21827;SDS011;11076;47.942;11.804;2023-03-19T19:29:01;9.37;;;3.57;;
21827;SDS011;11076;47.942;11.804;2023-03-19T19:34:04;5.07;;;3.30;;
21827;SDS011;11076;47.942;11.804;2023-03-19T19:39:06;8.07;;;3.27;;
21827;SDS011;11076;47.942;11.804;2023-03-19T19:44:16;4.90;;;3.28;;
21827;SDS011;11076;47.942;11.804;2023-03-19T19:49:20;18.23;;;7.65;;
21827;SDS011;11076;47.942;11.804;2023-03-19T19:54:23;23.17;;;8.85;;
21827;SDS011;11076;47.942;11.804;2023-03-19T19:59:26;18.23;;;7.53;;
21827;SDS011;11076;47.942;11.804;2023-03-19T20:04:29;13.00;;;6.78;;
21827;SDS011;11076;47.942;11.804;2023-03-19T20:09:32;13.05;;;5.80;;
21827;SDS011;11076;47.942;11.804;2023-03-19T20:14:34;8.90;;;4.90;;
21827;SDS011;11076;47.942;11.804;2023-03-19T20:19:37;13.65;;;4.65;;
21827;SDS011;11076;47.942;11.804;2023-03-19T20:24:40;7.80;;;3.25;;
21827;SDS011;11076;47.942;11.804;2023-03-19T20:29:42;5.88;;;3.00;;
21827;SDS011;11076;47.942;11.804;2023-03-19T20:34:45;5.97;;;3.08;;
21827;SDS011;11076;47.942;11.804;2023-03-19T20:39:47;12.40;;;4.32;;
21827;SDS011;11076;47.942;11.804;2023-03-19T20:44:51;13.43;;;7.85;;
21827;SDS011;11076;47.942;11.804;2023-03-19T20:49:57;7.45;;;4.85;;
21827;SDS011;11076;47.942;11.804;2023-03-19T20:55:00;6.90;;;5.80;;
21827;SDS011;11076;47.942;11.804;2023-03-19T21:00:05;10.38;;;5.03;;
21827;SDS011;11076;47.942;11.804;2023-03-19T21:05:19;12.75;;;3.90;;
21827;SDS011;11076;47.942;11.804;2023-03-19T21:15:25;3.50;;;2.60;;
21827;SDS011;11076;47.942;11.804;2023-03-19T21:20:29;5.60;;;2.90;;
21827;SDS011;11076;47.942;11.804;2023-03-19T21:25:33;5.05;;;3.20;;
21827;SDS011;11076;47.942;11.804;2023-03-19T21:30:39;4.40;;;3.60;;
21827;SDS011;11076;47.942;11.804;2023-03-19T21:35:43;2.58;;;2.33;;
21827;SDS011;11076;47.942;11.804;2023-03-19T21:40:46;4.95;;;3.50;;
21827;SDS011;11076;47.942;11.804;2023-03-19T21:45:49;3.30;;;2.80;;
21827;SDS011;11076;47.942;11.804;2023-03-19T21:50:52;3.35;;;3.05;;
21827;SDS011;11076;47.942;11.804;2023-03-19T21:55:56;9.85;;;3.65;;
21827;SDS011;11076;47.942;11.804;2023-03-19T22:01:00;7.30;;;3.58;;
21827;SDS011;11076;47.942;11.804;2023-03-19T22:06:04;4.88;;;3.28;;
21827;SDS011;11076;47.942;11.804;2023-03-19T22:11:11;5.57;;;3.08;;
21827;SDS011;11076;47.942;11.804;2023-03-19T22:16:22;4.00;;;3.10;;
21827;SDS011;11076;47.942;11.804;2023-03-19T22:21:26;3.45;;;2.97;;
21827;SDS011;11076;47.942;11.804;2023-03-19T22:26:35;1.33;;;1.23;;
21827;SDS011;11076;47.942;11.804;2023-03-19T22:31:39;3.00;;;2.70;;
21827;SDS011;11076;47.942;11.804;2023-03-19T22:36:43;5.78;;;3.05;;
21827;SDS011;11076;47.942;11.804;2023-03-19T22:41:46;2.92;;;2.67;;
21827;SDS011;11076;47.942;11.804;2023-03-19T22:46:50;2.72;;;1.90;;
21827;SDS011;11076;47.942;11.804;2023-03-19T22:51:53;4.50;;;2.17;;
21827;SDS011;11076;47.942;11.804;2023-03-19T22:56:56;3.38;;;2.67;;
21827;SDS011;11076;47.942;11.804;2023-03-19T23:01:59;3.05;;;2.20;;
21827;SDS011;11076;47.942;11.804;2023-03-19T23:07:01;3.33;;;2.35;;
21827;SDS011;11076;47.942;11.804;2023-03-19T23:12:04;4.45;;;2.50;;
21827;SDS011;11076;47.942;11.804;2023-03-19T23:17:12;6.47;;;2.73;;
21827;SDS011;11076;47.942;11.804;2023-03-19T23:22:18;2.45;;;2.00;;
21827;SDS011;11076;47.942;11.804;2023-03-19T23:27:21;3.75;;;2.10;;
21827;SDS011;11076;47.942;11.804;2023-03-19T23:32:26;3.45;;;2.35;;
21827;SDS011;11076;47.942;11.804;2023-03-19T23:37:28;2.42;;;2.22;;
21827;SDS011;11076;47.942;11.804;2023-03-19T23:42:31;2.00;;;1.90;;
21827;SDS011;11076;47.942;11.804;2023-03-19T23:47:33;3.13;;;2.17;;
21827;SDS011;11076;47.942;11.804;2023-03-19T23:52:36;4.88;;;2.38;;
21827;SDS011;11076;47.942;11.804;2023-03-19T23:57:38;5.82;;;2.17;;
